Time;durP1;ratioP1;P1;durP2;ratioP2;P2;SDS_P1;SDS_P2;PMS_P1;PMS_P2;Temp;Humidity;BMP_temperature;BMP_pressure;BME280_temperature;BME280_humidity;BME280_pressure;Samples;Min_cycle;Max_cycle;Signal;HPM_P1;HPM_P2
2021/08/16 02:45:47;;;;;;;12.15;3.50;;;21.80;86.20;;;;;;5601069;24;20069;-77
2021/08/16 02:48:13;;;;;;;7.28;3.65;;;21.80;86.40;;;;;;4837152;29;20085;-77
2021/08/16 02:50:38;;;;;;;9.43;3.83;;;21.90;86.70;;;;;;4837864;29;20325;-77
2021/08/16 02:53:04;;;;;;;8.80;3.42;;;21.90;87.30;;;;;;4853170;29;20049;-77
2021/08/16 02:55:30;;;;;;;14.55;3.80;;;21.90;87.80;;;;;;4853358;29;20041;-77
2021/08/16 02:57:55;;;;;;;5.97;3.15;;;21.80;87.70;;;;;;4853178;29;20041;-77
2021/08/16 03:00:21;;;;;;;12.95;3.88;;;21.80;87.90;;;;;;4854660;29;20018;-77
2021/08/16 03:02:47;;;;;;;8.77;4.00;;;21.80;87.90;;;;;;4853160;29;20030;-77
2021/08/16 03:05:13;;;;;;;9.45;3.92;;;21.80;88.10;;;;;;4853295;29;20025;-77
2021/08/16 03:07:39;;;;;;;11.18;5.03;;;21.80;88.20;;;;;;4854553;29;20082;-77
2021/08/16 03:10:09;;;;;;;16.10;4.68;;;21.80;88.60;;;;;;4838218;29;20317;-76
2021/08/16 03:12:35;;;;;;;10.27;4.10;;;21.80;89.00;;;;;;4837885;29;20033;-76
2021/08/16 03:15:01;;;;;;;9.57;3.85;;;21.70;89.30;;;;;;4853351;29;20034;-77
2021/08/16 03:17:27;;;;;;;14.00;4.25;;;21.70;89.50;;;;;;4841443;29;20095;-77
2021/08/16 03:19:53;;;;;;;10.13;3.85;;;21.70;89.90;;;;;;4834447;29;20030;-77
2021/08/16 03:22:18;;;;;;;12.50;4.15;;;21.60;90.00;;;;;;4834961;29;20101;-77
2021/08/16 03:24:44;;;;;;;13.38;4.07;;;21.60;90.20;;;;;;4834530;29;20038;-77
2021/08/16 03:27:10;;;;;;;13.30;4.30;;;21.50;90.10;;;;;;4835804;29;20097;-77
2021/08/16 03:29:36;;;;;;;14.38;4.30;;;21.60;90.20;;;;;;4835857;29;20026;-77
2021/08/16 03:32:01;;;;;;;12.75;4.03;;;21.50;90.20;;;;;;4835450;29;20026;-79
2021/08/16 03:34:28;;;;;;;11.70;4.22;;;21.50;90.30;;;;;;4819350;29;20090;-77
2021/08/16 03:36:54;;;;;;;;;;;21.50;90.40;;;;;;4834681;29;20049;-77
2021/08/16 03:39:20;;;;;;;12.77;4.70;;;21.50;90.40;;;;;;4834231;29;20172;-77
2021/08/16 03:41:45;;;;;;;16.05;4.93;;;21.50;90.40;;;;;;4835601;29;20087;-77
2021/08/16 03:44:11;;;;;;;9.18;3.92;;;21.60;90.50;;;;;;4834283;29;20026;-77
2021/08/16 03:46:37;;;;;;;8.30;4.65;;;21.60;90.60;;;;;;4834016;29;20058;-77
2021/08/16 03:49:02;;;;;;;11.45;5.15;;;21.60;90.50;;;;;;4834431;29;20195;-77
2021/08/16 03:51:28;;;;;;;11.02;4.93;;;21.60;90.60;;;;;;4834099;29;20058;-77
2021/08/16 03:53:54;;;;;;;12.00;4.38;;;21.60;90.70;;;;;;4834217;29;20031;-77
2021/08/16 03:56:20;;;;;;;16.58;4.55;;;21.60;90.80;;;;;;4834030;29;20036;-77
2021/08/16 03:58:45;;;;;;;12.45;5.05;;;21.60;90.80;;;;;;4833992;29;20341;-77
2021/08/16 04:01:12;;;;;;;7.97;4.38;;;21.50;90.80;;;;;;4833670;29;20060;-77
2021/08/16 04:03:42;;;;;;;10.63;5.03;;;21.50;91.00;;;;;;4835062;29;20055;-77
2021/08/16 04:06:07;;;;;;;9.02;4.72;;;21.50;91.00;;;;;;4833979;29;20106;-77
2021/08/16 04:08:33;;;;;;;9.18;4.63;;;21.50;91.30;;;;;;4833558;29;20038;-77
2021/08/16 04:11:00;;;;;;;11.38;4.60;;;21.50;91.30;;;;;;4833564;29;20062;-77
2021/08/16 04:13:26;;;;;;;12.18;5.38;;;21.50;91.30;;;;;;4833768;29;20057;-77
2021/08/16 04:15:52;;;;;;;9.48;4.93;;;21.50;91.30;;;;;;4818459;29;20038;-77
2021/08/16 04:18:18;;;;;;;8.98;4.70;;;21.50;91.50;;;;;;4833804;29;20041;-77
2021/08/16 04:20:44;;;;;;;12.35;4.93;;;21.50;91.50;;;;;;4834819;29;20054;-77
2021/08/16 04:23:09;;;;;;;10.13;5.10;;;21.50;91.50;;;;;;4818290;29;20079;-76
2021/08/16 04:25:35;;;;;;;12.25;4.65;;;21.50;91.70;;;;;;4818095;29;20318;-76
2021/08/16 04:28:01;;;;;;;11.73;5.18;;;21.60;91.60;;;;;;4834500;29;20053;-77
2021/08/16 04:30:27;;;;;;;7.10;4.35;;;21.60;91.60;;;;;;4848551;29;20205;-77
2021/08/16 04:32:52;;;;;;;11.43;5.00;;;21.60;91.70;;;;;;4833322;29;20030;-76
2021/08/16 04:35:19;;;;;;;11.15;5.13;;;21.60;91.50;;;;;;4818052;29;20030;-77
2021/08/16 04:37:45;;;;;;;12.77;4.53;;;21.70;91.40;;;;;;4834356;29;20041;-77
2021/08/16 04:40:11;;;;;;;12.90;3.97;;;21.80;91.30;;;;;;4826772;29;20222;-77
2021/08/16 04:42:37;;;;;;;11.20;4.90;;;21.90;91.30;;;;;;4817626;29;20030;-77
2021/08/16 04:45:05;;;;;;;13.48;4.63;;;22.00;91.10;;;;;;4835506;29;20031;-77
2021/08/16 04:47:31;;;;;;;8.32;4.30;;;22.10;91.20;;;;;;4829230;29;20054;-77
2021/08/16 04:49:57;;;;;;;10.43;4.22;;;22.30;91.30;;;;;;4825746;29;20120;-77
2021/08/16 04:52:24;;;;;;;8.38;4.38;;;22.40;90.70;;;;;;4851734;29;20052;-77
2021/08/16 04:54:49;;;;;;;11.68;4.00;;;22.50;90.50;;;;;;4848969;29;20029;-77
2021/08/16 04:57:43;;;;;;;14.30;4.57;;;22.60;90.10;;;;;;4844962;29;20049;-76
2021/08/16 05:00:12;;;;;;;18.42;4.65;;;22.70;90.30;;;;;;4835912;29;20046;-76
2021/08/16 05:02:38;;;;;;;13.73;4.22;;;22.80;89.20;;;;;;4851214;29;20030;-77
2021/08/16 05:05:10;;;;;;;9.00;3.58;;;22.90;88.10;;;;;;4852848;29;20021;-77
2021/08/16 05:07:36;;;;;;;12.27;4.20;;;23.00;86.90;;;;;;4850351;29;20067;-77
2021/08/16 05:10:06;;;;;;;7.55;4.55;;;23.10;86.10;;;;;;4837625;29;20031;-77
2021/08/16 05:12:32;;;;;;;13.13;3.80;;;23.20;86.40;;;;;;4850219;29;20038;-77
2021/08/16 05:14:58;;;;;;;11.27;3.63;;;23.30;85.70;;;;;;4842435;29;20045;-77
2021/08/16 05:17:23;;;;;;;9.13;3.28;;;23.40;85.00;;;;;;4838751;29;20058;-77
2021/08/16 05:19:49;;;;;;;14.82;5.25;;;23.50;85.30;;;;;;4816350;29;20322;-77
2021/08/16 05:22:15;;;;;;;24.45;14.60;;;23.60;85.60;;;;;;4830277;29;20025;-77
2021/08/16 05:24:41;;;;;;;12.25;5.93;;;23.70;85.40;;;;;;4843983;29;20090;-77
2021/08/16 05:27:06;;;;;;;11.98;4.10;;;23.80;84.30;;;;;;4842191;29;20026;-77
2021/08/16 05:29:32;;;;;;;8.20;3.63;;;23.90;83.00;;;;;;4845116;29;20037;-77
2021/08/16 05:31:58;;;;;;;11.25;4.82;;;24.10;81.90;;;;;;4841276;29;20034;-77
2021/08/16 05:34:24;;;;;;;7.20;3.65;;;24.20;81.80;;;;;;4831451;29;20267;-77
2021/08/16 05:36:49;;;;;;;9.10;3.67;;;24.40;79.60;;;;;;4852533;29;20333;-77
2021/08/16 05:39:15;;;;;;;12.05;3.42;;;24.40;78.20;;;;;;4840621;29;20106;-77
2021/08/16 05:41:41;;;;;;;7.72;3.58;;;24.50;77.20;;;;;;4835846;29;20026;-78
2021/08/16 05:44:07;;;;;;;13.52;4.10;;;24.60;76.70;;;;;;4847695;29;20026;-77
2021/08/16 05:46:32;;;;;;;6.20;3.50;;;24.70;76.30;;;;;;4842058;29;20062;-78
2021/08/16 05:48:58;;;;;;;11.85;3.72;;;24.90;75.50;;;;;;4845117;29;20233;-77
2021/08/16 05:51:24;;;;;;;9.18;2.90;;;25.00;73.90;;;;;;4851414;29;20030;-77
2021/08/16 05:53:49;;;;;;;13.27;3.92;;;25.00;72.50;;;;;;4846348;29;20120;-77
2021/08/16 05:56:15;;;;;;;7.78;3.13;;;25.20;72.60;;;;;;4854463;29;20127;-77
2021/08/16 05:58:42;;;;;;;9.40;3.03;;;25.30;71.50;;;;;;4835574;29;20098;-77
2021/08/16 06:01:08;;;;;;;15.10;3.78;;;25.40;71.10;;;;;;4845067;29;20033;-77
2021/08/16 06:03:34;;;;;;;15.40;3.60;;;25.60;71.30;;;;;;4834044;29;20097;-77
2021/08/16 06:06:00;;;;;;;10.70;3.03;;;25.70;70.20;;;;;;4843171;29;20221;-78
2021/08/16 06:08:26;;;;;;;8.98;3.33;;;25.80;69.50;;;;;;4831920;29;20058;-77
2021/08/16 06:10:52;;;;;;;8.77;3.30;;;26.00;68.50;;;;;;4826275;29;20264;-77
2021/08/16 06:13:17;;;;;;;5.65;3.03;;;26.00;69.20;;;;;;4818976;29;20042;-76
2021/08/16 06:15:43;;;;;;;8.05;3.17;;;26.20;68.70;;;;;;4832055;29;20045;-77
2021/08/16 06:18:09;;;;;;;8.93;3.10;;;26.30;68.10;;;;;;4835513;29;20032;-77
2021/08/16 06:20:34;;;;;;;8.10;2.65;;;26.50;67.30;;;;;;4835715;29;20049;-77
2021/08/16 06:23:00;;;;;;;12.20;3.78;;;26.50;65.90;;;;;;4836851;29;20057;-77
2021/08/16 06:25:26;;;;;;;13.07;3.33;;;26.60;65.60;;;;;;4835814;29;20065;-77
2021/08/16 06:27:51;;;;;;;11.23;3.17;;;26.60;65.30;;;;;;4835198;29;20023;-79
2021/08/16 06:30:17;;;;;;;9.40;3.40;;;26.50;66.80;;;;;;4831997;29;20034;-81
2021/08/16 06:32:45;;;;;;;7.60;3.33;;;26.70;65.60;;;;;;4851936;29;20109;-80
2021/08/16 06:35:14;;;;;;;7.63;3.25;;;26.70;65.50;;;;;;4804214;29;20048;-81
2021/08/16 06:37:41;;;;;;;9.00;3.05;;;26.80;64.50;;;;;;4803936;29;20283;-81
2021/08/16 06:40:09;;;;;;;;;;;27.00;65.60;;;;;;4825537;29;20317;-81
2021/08/16 06:42:35;;;;;;;9.10;3.53;;;27.20;65.50;;;;;;4837342;29;19924;-82
2021/08/16 06:45:01;;;;;;;7.25;3.40;;;27.50;65.20;;;;;;4821069;29;20030;-81
2021/08/16 06:47:27;;;;;;;12.93;4.03;;;27.70;63.90;;;;;;4847969;29;20424;-81
2021/08/16 06:49:53;;;;;;;8.93;4.20;;;27.80;62.60;;;;;;4839351;29;20034;-81
2021/08/16 06:52:19;;;;;;;14.52;4.15;;;27.70;61.00;;;;;;4856094;29;20022;-79
2021/08/16 06:54:45;;;;;;;8.60;4.43;;;27.60;63.30;;;;;;4855002;29;20325;-79
2021/08/16 06:57:10;;;;;;;9.98;4.10;;;27.50;63.20;;;;;;4842555;29;20042;-79
2021/08/16 06:59:36;;;;;;;17.60;5.10;;;27.60;64.60;;;;;;4856130;29;20065;-81
2021/08/16 07:02:02;;;;;;;11.50;3.85;;;27.70;64.50;;;;;;4853846;29;20025;-81
2021/08/16 07:04:28;;;;;;;9.63;3.78;;;28.00;64.40;;;;;;4850981;29;20310;-82
2021/08/16 07:06:54;;;;;;;5.50;3.57;;;28.20;63.80;;;;;;4848943;29;20258;-81
2021/08/16 07:09:20;;;;;;;13.32;4.30;;;28.30;62.20;;;;;;4844659;29;20025;-78
2021/08/16 07:11:46;;;;;;;8.82;4.43;;;28.60;62.30;;;;;;4854025;29;20048;-78
2021/08/16 07:14:12;;;;;;;14.00;5.20;;;28.60;61.00;;;;;;4854604;29;20033;-78
2021/08/16 07:16:38;;;;;;;11.95;3.92;;;28.70;60.50;;;;;;4864875;29;20053;-78
2021/08/16 07:19:03;;;;;;;9.82;3.80;;;28.90;60.70;;;;;;4836627;29;20034;-78
2021/08/16 07:21:29;;;;;;;8.93;4.10;;;29.00;61.50;;;;;;4837684;29;20038;-78
2021/08/16 07:23:55;;;;;;;12.05;4.65;;;29.10;60.40;;;;;;4836805;29;20050;-78
2021/08/16 07:26:21;;;;;;;12.75;4.57;;;29.30;61.30;;;;;;4836431;29;20034;-78
2021/08/16 07:28:48;;;;;;;13.00;4.47;;;29.30;59.80;;;;;;4837309;29;20329;-78
2021/08/16 07:31:14;;;;;;;10.93;4.05;;;29.20;61.40;;;;;;4854950;29;20049;-78
2021/08/16 07:33:40;;;;;;;11.37;4.47;;;29.40;60.70;;;;;;4845545;29;20042;-78
2021/08/16 07:36:06;;;;;;;12.57;4.53;;;29.50;59.60;;;;;;4845505;29;20105;-78
2021/08/16 07:38:32;;;;;;;12.27;5.07;;;29.60;59.70;;;;;;4854988;29;20113;-78
2021/08/16 07:40:58;;;;;;;9.50;4.60;;;29.60;59.40;;;;;;4855325;29;20508;-79
2021/08/16 07:43:24;;;;;;;10.10;4.77;;;29.60;60.30;;;;;;4836751;29;20045;-78
2021/08/16 07:45:50;;;;;;;17.40;5.33;;;29.60;59.60;;;;;;4836877;29;20062;-78
2021/08/16 07:48:17;;;;;;;15.77;4.78;;;29.60;59.00;;;;;;4837247;29;20316;-78
2021/08/16 07:50:43;;;;;;;16.65;4.97;;;29.80;60.00;;;;;;4836466;29;20038;-78
2021/08/16 07:53:09;;;;;;;16.33;4.77;;;30.00;59.10;;;;;;4818430;29;20088;-78
2021/08/16 07:55:34;;;;;;;12.23;4.83;;;30.30;58.50;;;;;;4832774;29;20039;-78
2021/08/16 07:58:00;;;;;;;12.10;5.27;;;30.50;58.80;;;;;;4830700;29;20026;-77
2021/08/16 08:00:26;;;;;;;11.13;5.03;;;30.70;58.40;;;;;;4844688;29;20039;-78
2021/08/16 08:02:53;;;;;;;10.88;4.88;;;30.90;57.90;;;;;;4837119;29;20034;-78
2021/08/16 08:05:20;;;;;;;11.10;4.67;;;31.00;58.40;;;;;;4834837;29;20034;-78
2021/08/16 08:07:46;;;;;;;17.20;5.40;;;31.30;57.30;;;;;;4820612;29;20045;-78
2021/08/16 08:10:14;;;;;;;16.40;4.97;;;31.50;55.90;;;;;;4819240;29;20066;-78
2021/08/16 08:12:40;;;;;;;15.23;4.53;;;31.50;57.00;;;;;;4818833;29;20050;-78
2021/08/16 08:15:07;;;;;;;10.25;4.32;;;31.50;56.40;;;;;;4819529;29;20052;-79
2021/08/16 08:17:33;;;;;;;13.18;4.82;;;31.60;56.10;;;;;;4803565;29;20059;-78
2021/08/16 08:20:00;;;;;;;10.10;4.40;;;31.70;55.90;;;;;;4818887;29;20027;-78
2021/08/16 08:22:26;;;;;;;9.60;4.45;;;31.70;55.70;;;;;;4803913;29;20096;-78
2021/08/16 08:24:53;;;;;;;19.80;5.18;;;31.60;56.00;;;;;;4819757;29;20369;-78
2021/08/16 08:27:19;;;;;;;17.48;5.00;;;31.70;55.40;;;;;;4830224;29;20332;-78
2021/08/16 08:29:45;;;;;;;14.93;5.13;;;31.90;56.30;;;;;;4848121;29;20026;-78
2021/08/16 08:32:12;;;;;;;16.50;4.90;;;32.00;55.50;;;;;;4828929;29;20046;-78
2021/08/16 08:34:37;;;;;;;14.93;4.75;;;32.10;54.80;;;;;;4848189;29;20037;-78
2021/08/16 08:37:09;;;;;;;9.73;4.53;;;32.20;55.10;;;;;;4839422;29;20042;-78
2021/08/16 08:39:38;;;;;;;15.38;5.68;;;32.40;56.20;;;;;;4840184;29;20054;-78
2021/08/16 08:42:05;;;;;;;12.70;5.28;;;32.60;54.90;;;;;;4855194;29;20033;-78
2021/08/16 08:44:31;;;;;;;12.45;5.13;;;32.70;54.70;;;;;;4834385;29;20036;-78
2021/08/16 08:46:57;;;;;;;9.63;4.90;;;32.70;55.70;;;;;;4820151;29;20117;-78
2021/08/16 08:49:23;;;;;;;15.87;4.80;;;32.70;53.20;;;;;;4842960;29;20338;-78
2021/08/16 08:51:49;;;;;;;;;;;32.90;53.10;;;;;;4848645;29;20032;-78
2021/08/16 08:54:16;;;;;;;17.13;4.93;;;32.70;51.30;;;;;;4841377;29;19908;-78
2021/08/16 08:56:42;;;;;;;14.60;5.43;;;32.50;53.30;;;;;;4837044;29;20057;-79
2021/08/16 08:59:11;;;;;;;9.20;4.72;;;32.50;52.40;;;;;;4817879;29;20084;-77
2021/08/16 09:01:48;;;;;;;10.80;4.38;;;32.80;54.20;;;;;;4832932;29;20033;-78
2021/08/16 09:04:14;;;;;;;13.73;5.65;;;32.90;53.40;;;;;;4836387;29;20030;-78
2021/08/16 09:06:43;;;;;;;14.57;4.73;;;32.90;53.50;;;;;;4838854;29;20038;-78
2021/08/16 09:09:10;;;;;;;18.13;4.75;;;33.10;54.40;;;;;;4840043;29;20018;-77
2021/08/16 09:11:36;;;;;;;11.20;4.03;;;33.20;53.50;;;;;;4839932;29;20034;-78
2021/08/16 09:14:04;;;;;;;15.83;4.63;;;33.20;52.90;;;;;;4826435;29;20350;-77
2021/08/16 09:16:33;;;;;;;14.32;4.75;;;33.20;54.50;;;;;;4859260;29;20045;-78
2021/08/16 09:19:10;;;;;;;13.10;5.03;;;33.50;54.20;;;;;;4815668;29;20083;-78
2021/08/16 09:21:39;;;;;;;11.55;4.45;;;33.50;53.20;;;;;;4826570;29;20037;-78
2021/08/16 09:24:05;;;;;;;10.88;4.53;;;33.50;53.00;;;;;;4821017;29;20027;-78
2021/08/16 09:26:34;;;;;;;16.48;5.22;;;33.50;52.80;;;;;;4829190;29;20069;-78
2021/08/16 09:29:17;;;;;;;15.25;5.80;;;33.30;51.80;;;;;;4839718;29;20038;-78
2021/08/16 09:32:06;;;;;;;12.95;4.85;;;33.20;52.50;;;;;;4855202;29;20109;-78
2021/08/16 09:34:32;;;;;;;18.05;5.03;;;33.30;52.40;;;;;;4787983;30;20051;-78
2021/08/16 09:37:01;;;;;;;14.93;5.53;;;33.30;52.40;;;;;;4783557;30;20135;-78
2021/08/16 09:39:29;;;;;;;10.88;4.95;;;33.20;53.60;;;;;;4778252;30;20434;-78
2021/08/16 09:42:00;;;;;;;17.23;5.70;;;33.10;52.90;;;;;;4782822;30;20080;-79
2021/08/16 09:44:27;;;;;;;12.45;4.38;;;32.80;53.50;;;;;;4782064;30;20038;-80
2021/08/16 09:47:19;;;;;;;13.20;5.45;;;32.70;53.50;;;;;;4766452;30;20059;-79
2021/08/16 09:49:57;;;;;;;16.08;5.13;;;32.60;54.20;;;;;;4729996;30;20116;-78
2021/08/16 09:52:28;;;;;;;14.25;5.43;;;32.40;54.90;;;;;;4712993;30;20057;-79
2021/08/16 09:54:56;;;;;;;11.35;4.93;;;32.50;55.30;;;;;;4730685;30;20045;-78
2021/08/16 09:57:22;;;;;;;13.32;5.75;;;32.60;55.00;;;;;;4721448;30;20045;-77
2021/08/16 09:59:48;;;;;;;14.40;5.00;;;33.00;54.10;;;;;;4717903;30;20069;-78
2021/08/16 10:02:15;;;;;;;12.38;5.82;;;33.10;53.40;;;;;;4717715;30;20033;-77
2021/08/16 10:04:40;;;;;;;18.25;5.50;;;32.80;53.70;;;;;;4732705;30;20041;-79
2021/08/16 10:07:10;;;;;;;12.37;5.20;;;32.70;54.60;;;;;;4735274;30;20463;-80
2021/08/16 10:09:39;;;;;;;11.75;5.15;;;32.80;53.80;;;;;;4719635;30;20342;-81
2021/08/16 10:12:05;;;;;;;12.73;5.18;;;32.90;54.00;;;;;;4749995;30;20040;-81
2021/08/16 10:14:32;;;;;;;10.70;5.35;;;33.10;53.80;;;;;;4739300;30;20040;-81
2021/08/16 10:17:00;;;;;;;11.85;4.88;;;33.00;53.10;;;;;;4768005;30;20040;-81
2021/08/16 10:19:38;;;;;;;12.73;5.32;;;33.00;53.20;;;;;;4738197;30;20070;-82
2021/08/16 10:22:06;;;;;;;15.02;5.85;;;33.00;52.90;;;;;;4743552;30;20383;-81
2021/08/16 10:24:32;;;;;;;23.63;5.38;;;32.60;53.20;;;;;;4766860;30;20415;-81
2021/08/16 10:27:01;;;;;;;11.20;5.37;;;32.40;54.10;;;;;;4812480;29;20046;-80
2021/08/16 10:29:28;;;;;;;18.85;5.72;;;32.40;54.90;;;;;;4827972;29;20033;-81
2021/08/16 10:31:55;;;;;;;14.05;5.68;;;32.70;55.30;;;;;;4829022;29;20396;-80
2021/08/16 10:34:39;;;;;;;14.27;5.93;;;32.80;54.90;;;;;;4840617;29;20030;-81
2021/08/16 10:37:10;;;;;;;11.05;4.68;;;33.00;54.90;;;;;;4841555;29;20098;-81
2021/08/16 10:39:38;;;;;;;16.88;5.70;;;33.40;55.00;;;;;;4825238;29;20094;-81
2021/08/16 10:42:06;;;;;;;16.10;6.30;;;33.90;55.00;;;;;;4840344;29;20034;-81
2021/08/16 10:44:41;;;;;;;13.88;5.85;;;34.10;53.60;;;;;;4839820;29;20026;-81
2021/08/16 10:47:09;;;;;;;9.02;5.28;;;34.20;52.70;;;;;;4822652;29;20223;-80
2021/08/16 10:49:37;;;;;;;13.40;5.43;;;34.10;51.80;;;;;;4825299;29;20062;-81
2021/08/16 10:52:05;;;;;;;16.65;5.93;;;33.90;52.40;;;;;;4831315;29;20031;-81
2021/08/16 10:54:33;;;;;;;9.30;5.20;;;33.90;52.50;;;;;;4829554;29;20101;-81
2021/08/16 10:56:59;;;;;;;12.65;5.35;;;33.90;53.70;;;;;;4828435;29;20027;-81
2021/08/16 10:59:26;;;;;;;;;;;34.10;53.60;;;;;;4819325;29;20140;-80
2021/08/16 11:01:54;;;;;;;9.82;5.47;;;33.90;52.10;;;;;;4821446;29;19916;-80
2021/08/16 11:04:34;;;;;;;16.58;5.95;;;33.60;53.40;;;;;;4821185;29;20031;-80
2021/08/16 11:07:08;;;;;;;14.45;6.40;;;33.40;53.90;;;;;;4821266;29;20232;-80
2021/08/16 11:09:36;;;;;;;18.00;6.70;;;33.20;54.60;;;;;;4822551;29;20061;-80
2021/08/16 11:12:08;;;;;;;18.02;6.68;;;33.10;54.40;;;;;;4824216;29;20041;-80
2021/08/16 11:14:37;;;;;;;18.60;5.85;;;32.90;54.50;;;;;;4840368;29;20341;-79
2021/08/16 11:17:03;;;;;;;18.80;5.45;;;32.80;53.70;;;;;;4825142;29;20053;-80
2021/08/16 11:19:49;;;;;;;13.25;5.10;;;32.70;53.60;;;;;;4859929;29;20021;-79
2021/08/16 11:22:16;;;;;;;15.75;5.35;;;32.50;53.60;;;;;;4831124;29;20042;-79
2021/08/16 11:24:44;;;;;;;11.15;5.00;;;32.40;53.00;;;;;;4846164;29;20034;-81
2021/08/16 11:27:17;;;;;;;17.58;6.18;;;32.30;53.80;;;;;;4841744;29;20025;-80
2021/08/16 11:29:43;;;;;;;18.20;5.75;;;32.40;54.50;;;;;;4836782;29;20037;-79
2021/08/16 11:32:09;;;;;;;15.63;5.00;;;32.70;53.00;;;;;;4826260;29;20045;-80
2021/08/16 11:34:46;;;;;;;9.90;5.33;;;32.70;53.70;;;;;;4845632;29;20105;-80
2021/08/16 11:37:14;;;;;;;12.93;6.00;;;32.80;53.30;;;;;;4837802;29;20014;-80
2021/08/16 11:39:40;;;;;;;12.40;5.57;;;32.80;52.40;;;;;;4820185;29;20035;-80
2021/08/16 11:42:06;;;;;;;13.23;5.37;;;33.00;53.30;;;;;;4808168;29;20080;-80
2021/08/16 11:44:32;;;;;;;10.90;5.57;;;33.10;54.40;;;;;;4851083;29;20318;-80
2021/08/16 11:46:59;;;;;;;13.30;5.63;;;33.50;54.40;;;;;;4843944;29;20301;-80
2021/08/16 11:49:30;;;;;;;13.93;6.13;;;33.80;53.00;;;;;;4859682;29;20094;-80
2021/08/16 11:51:57;;;;;;;11.15;4.80;;;33.90;53.50;;;;;;4843837;29;20034;-80
2021/08/16 11:54:25;;;;;;;15.65;5.05;;;33.90;53.60;;;;;;4859516;29;20044;-80
2021/08/16 11:56:56;;;;;;;18.17;6.60;;;33.90;52.40;;;;;;4826747;29;20071;-79
2021/08/16 11:59:22;;;;;;;13.07;5.95;;;33.90;52.10;;;;;;4825847;29;20034;-79
2021/08/16 12:01:48;;;;;;;14.52;6.20;;;33.90;52.80;;;;;;4842512;29;20077;-79
2021/08/16 12:04:14;;;;;;;12.00;5.70;;;34.00;53.80;;;;;;4842349;29;20036;-79
2021/08/16 12:06:42;;;;;;;19.40;6.27;;;34.30;52.20;;;;;;4826580;29;20062;-79
2021/08/16 12:09:09;;;;;;;16.13;5.88;;;34.40;52.50;;;;;;4839455;29;20033;-79
2021/08/16 12:11:36;;;;;;;18.65;5.95;;;34.50;52.30;;;;;;4848225;29;20038;-79
2021/08/16 12:14:02;;;;;;;15.13;5.90;;;34.50;49.80;;;;;;4837810;29;20033;-79
2021/08/16 12:16:34;;;;;;;13.60;5.82;;;34.20;50.70;;;;;;4829113;29;20042;-79
2021/08/16 12:19:00;;;;;;;14.85;6.55;;;34.00;51.20;;;;;;4843240;29;20029;-79
2021/08/16 12:21:27;;;;;;;14.20;5.75;;;33.90;51.30;;;;;;4844274;29;20034;-79
2021/08/16 12:23:56;;;;;;;10.70;6.15;;;33.80;50.30;;;;;;4857087;29;20063;-80
2021/08/16 12:26:33;;;;;;;11.85;6.03;;;33.70;50.90;;;;;;4842548;29;20033;-80
2021/08/16 12:29:01;;;;;;;18.15;6.60;;;33.70;51.70;;;;;;4857444;29;20090;-80
2021/08/16 12:31:29;;;;;;;15.57;6.22;;;33.50;51.80;;;;;;4842646;29;20392;-80
2021/08/16 12:33:55;;;;;;;15.65;7.05;;;33.40;52.10;;;;;;4847493;29;20072;-80
2021/08/16 12:36:36;;;;;;;12.32;7.20;;;33.40;52.40;;;;;;4807661;29;20081;-80
2021/08/16 12:39:08;;;;;;;13.15;7.00;;;33.20;52.80;;;;;;4826984;29;20033;-80
2021/08/16 12:41:34;;;;;;;15.85;6.63;;;33.00;53.60;;;;;;4828758;29;20140;-79
2021/08/16 12:44:00;;;;;;;15.98;7.10;;;32.70;53.70;;;;;;4805049;29;20046;-79
2021/08/16 12:46:32;;;;;;;15.02;6.57;;;32.40;54.20;;;;;;4823765;29;20058;-80
2021/08/16 12:48:58;;;;;;;24.00;7.25;;;32.10;54.70;;;;;;4823739;29;20034;-79
2021/08/16 12:51:25;;;;;;;12.65;6.82;;;32.00;56.00;;;;;;4833561;29;20042;-79
2021/08/16 12:53:51;;;;;;;15.73;6.28;;;31.90;55.90;;;;;;4842082;29;20022;-77
2021/08/16 12:56:17;;;;;;;17.73;6.60;;;31.70;56.10;;;;;;4835038;29;20094;-77
2021/08/16 12:58:43;;;;;;;13.30;6.43;;;31.40;56.40;;;;;;4822219;29;20026;-78
2021/08/16 13:01:16;;;;;;;20.87;6.83;;;31.30;57.10;;;;;;4839098;29;20034;-77
2021/08/16 13:03:42;;;;;;;15.82;7.15;;;31.20;58.20;;;;;;4820309;29;20031;-78
2021/08/16 13:06:07;;;;;;;22.10;7.23;;;31.10;57.70;;;;;;4850414;29;20046;-78
2021/08/16 13:08:33;;;;;;;21.03;7.83;;;30.90;58.10;;;;;;4837118;29;20026;-77
2021/08/16 13:11:01;;;;;;;13.03;6.43;;;30.90;58.40;;;;;;4835859;29;20038;-77
2021/08/16 13:13:27;;;;;;;15.80;7.55;;;30.70;58.20;;;;;;4835897;29;20051;-77
2021/08/16 13:15:52;;;;;;;15.93;7.20;;;30.60;58.60;;;;;;4837817;29;20030;-78
2021/08/16 13:18:18;;;;;;;19.27;6.93;;;30.40;59.10;;;;;;4819464;29;20026;-78
2021/08/16 13:20:44;;;;;;;17.20;6.83;;;30.30;60.10;;;;;;4838294;29;20022;-79
2021/08/16 13:23:10;;;;;;;18.90;6.70;;;30.00;60.30;;;;;;4836559;29;20038;-79
2021/08/16 13:25:36;;;;;;;16.58;7.32;;;29.90;60.30;;;;;;4839294;29;20356;-77
2021/08/16 13:28:02;;;;;;;21.43;7.00;;;29.90;60.40;;;;;;4836694;29;20038;-77
2021/08/16 13:30:28;;;;;;;18.80;7.73;;;29.80;61.10;;;;;;4838044;29;20109;-77
2021/08/16 13:32:54;;;;;;;20.40;9.23;;;29.70;61.20;;;;;;4837454;29;20257;-77
2021/08/16 13:35:20;;;;;;;15.80;7.43;;;29.50;62.40;;;;;;4824077;29;20225;-77
2021/08/16 13:37:46;;;;;;;13.60;7.73;;;29.40;63.80;;;;;;4820954;29;20037;-78
2021/08/16 13:40:12;;;;;;;14.18;7.22;;;29.30;64.90;;;;;;4840481;29;20283;-78
2021/08/16 13:42:38;;;;;;;24.77;8.37;;;29.20;65.60;;;;;;4845263;29;20065;-79
2021/08/16 13:45:04;;;;;;;17.45;7.47;;;29.10;66.70;;;;;;4823473;29;20037;-78
2021/08/16 13:47:30;;;;;;;19.02;6.95;;;29.00;66.80;;;;;;4839151;29;20117;-78
2021/08/16 13:49:55;;;;;;;18.50;7.67;;;28.80;66.90;;;;;;4831662;29;20034;-79
2021/08/16 13:52:21;;;;;;;27.13;9.43;;;28.80;68.30;;;;;;4810535;29;20106;-80
2021/08/16 13:54:47;;;;;;;22.13;9.10;;;28.50;75.20;;;;;;4803591;29;20040;-81
2021/08/16 13:57:13;;;;;;;25.97;8.87;;;28.30;77.70;;;;;;4803805;29;20068;-81
2021/08/16 13:59:38;;;;;;;16.60;8.40;;;27.90;80.20;;;;;;4829791;29;20030;-81
2021/08/16 14:02:07;;;;;;;14.85;8.10;;;27.50;82.20;;;;;;4843528;29;20048;-81
2021/08/16 14:04:32;;;;;;;17.35;9.02;;;27.30;86.50;;;;;;4829807;29;20027;-82
2021/08/16 14:06:58;;;;;;;18.58;9.40;;;27.00;88.20;;;;;;4839946;29;20045;-81
2021/08/16 14:09:24;;;;;;;16.85;9.13;;;26.70;90.10;;;;;;4834509;29;20056;-82
2021/08/16 14:11:50;;;;;;;19.55;9.85;;;26.50;91.00;;;;;;4821616;29;20062;-81
2021/08/16 14:14:16;;;;;;;22.05;9.00;;;26.40;91.60;;;;;;4846618;29;20029;-81
2021/08/16 14:16:43;;;;;;;25.38;9.68;;;26.30;92.00;;;;;;4849338;29;20038;-81
2021/08/16 14:19:09;;;;;;;19.98;8.80;;;26.40;93.00;;;;;;4850258;29;20325;-81
2021/08/16 14:21:36;;;;;;;16.92;9.40;;;26.40;92.60;;;;;;4836045;29;20029;-81
2021/08/16 14:24:03;;;;;;;18.77;8.80;;;26.40;92.40;;;;;;4842961;29;20033;-81
2021/08/16 14:26:29;;;;;;;22.63;9.57;;;26.50;91.80;;;;;;4843935;29;20042;-81
2021/08/16 14:28:56;;;;;;;14.57;7.63;;;26.60;92.00;;;;;;4846163;29;20109;-81
2021/08/16 14:31:21;;;;;;;13.15;8.52;;;26.70;92.60;;;;;;4842656;29;20113;-81
2021/08/16 14:33:47;;;;;;;23.55;9.65;;;26.90;92.80;;;;;;4839939;29;20022;-82
2021/08/16 14:36:13;;;;;;;22.45;9.15;;;27.00;93.10;;;;;;4823646;29;20117;-80
2021/08/16 14:38:39;;;;;;;20.38;9.43;;;27.00;92.00;;;;;;4841831;29;20269;-80
2021/08/16 14:41:05;;;;;;;16.33;9.90;;;27.10;91.50;;;;;;4842193;29;20211;-80
2021/08/16 14:43:31;;;;;;;16.55;9.13;;;27.00;92.20;;;;;;4843739;29;20026;-80
2021/08/16 14:45:56;;;;;;;22.02;9.02;;;26.90;92.00;;;;;;4844697;29;20060;-80
2021/08/16 14:48:22;;;;;;;18.80;8.75;;;26.80;91.50;;;;;;4846193;29;20053;-81
2021/08/16 14:50:50;;;;;;;21.77;10.75;;;26.40;91.40;;;;;;4844784;29;20025;-81
2021/08/16 14:53:17;;;;;;;22.85;9.43;;;26.50;92.30;;;;;;4819769;29;20392;-81
2021/08/16 14:55:43;;;;;;;23.88;9.88;;;26.40;92.80;;;;;;4835913;29;20325;-80
2021/08/16 14:58:09;;;;;;;23.98;11.02;;;26.40;93.20;;;;;;4830482;29;20030;-80
2021/08/16 15:00:37;;;;;;;25.67;11.13;;;26.20;94.10;;;;;;4826117;29;20049;-80
2021/08/16 15:03:03;;;;;;;24.77;10.82;;;26.10;94.80;;;;;;4855568;29;20037;-80
2021/08/16 15:05:29;;;;;;;20.47;9.00;;;26.10;95.10;;;;;;4865762;29;20029;-81
2021/08/16 15:07:54;;;;;;;23.67;11.05;;;26.00;94.90;;;;;;4822977;29;20112;-81
2021/08/16 15:10:20;;;;;;;21.33;10.48;;;26.00;95.30;;;;;;4818033;29;20038;-82
2021/08/16 15:12:48;;;;;;;19.67;8.98;;;25.80;94.60;;;;;;4823826;29;20022;-81
2021/08/16 15:15:14;;;;;;;23.95;10.30;;;25.70;94.80;;;;;;4829459;29;20249;-80
2021/08/16 15:17:43;;;;;;;19.63;9.82;;;25.70;96.20;;;;;;4830119;29;20022;-81
2021/08/16 15:20:12;;;;;;;14.10;8.40;;;25.90;95.70;;;;;;4825679;29;20098;-79
2021/08/16 15:22:38;;;;;;;23.90;9.05;;;25.90;94.20;;;;;;4848106;29;20025;-80
2021/08/16 15:25:09;;;;;;;18.50;8.50;;;25.90;94.90;;;;;;4822187;29;20229;-79